Haren, Netherlands
Current Conditions -  °F | °C
As of 2:25 PM on Tuesday 21 Oct 2014 (Local Time) from EHGG Reporting Station
Light Rain Light Rain  
Wind Chill: 55°   Ceiling: 900
Heat Index: 55°   Visibility: 6mi
Dew Point: 54°   Wind: 20mph
Humidity: 94%   Direction: 200°SSW
Pressure: 29.38"   Gusts: NA
Location:  53.18°N, 6.63°E
Report Text: EHGG 211225Z AUTO 20017KT 180V240 9999 -RA FEW007 BKN009 BKN011SCT015CB 13/12 Q0995 REDZ TEMPO 22020G32KT 3000 RA -SHRA FEW025CB
Loading
Personal Weather Stations






























Interactive Weather Map
Tropical Storm Tracking
New forecast layout! Learn more

10-Day Weather Forecast

Advertisements
Track Severe Weather on mobile